createdAt,value
2019-04-22T07:50:03.891Z,12.00
2019-04-22T07:51:11.658Z,12.40
2019-04-22T07:52:15.999Z,11.90
2019-04-22T07:53:21.650Z,11.80
2019-04-22T07:54:29.191Z,11.70
2019-04-22T07:55:38.178Z,11.80
2019-04-22T07:56:43.641Z,11.80
2019-04-22T07:57:51.777Z,11.90
2019-04-22T07:59:07.614Z,12.00
2019-04-22T08:01:20.384Z,12.30
2019-04-22T08:02:32.751Z,12.40
2019-04-22T08:03:49.990Z,12.50
2019-04-22T08:04:56.287Z,12.50
2019-04-22T08:05:58.726Z,12.70
2019-04-22T08:07:03.864Z,12.70
2019-04-22T08:08:14.662Z,12.60
2019-04-22T08:09:19.847Z,12.60
2019-04-22T08:10:30.204Z,12.60
2019-04-22T08:11:47.937Z,12.50
2019-04-22T08:13:49.906Z,12.50
2019-04-22T08:14:52.184Z,12.60
2019-04-22T08:16:02.678Z,12.70
2019-04-22T08:17:38.863Z,12.70
2019-04-22T08:18:24.805Z,12.70
2019-04-22T08:19:28.160Z,12.80
2019-04-22T08:20:45.774Z,12.80
2019-04-22T08:21:46.265Z,12.90
2019-04-22T08:23:01.138Z,12.90
2019-04-22T08:24:01.499Z,12.90
2019-04-22T08:25:06.797Z,13.00
2019-04-22T08:26:19.583Z,12.90
2019-04-22T08:27:26.909Z,12.80
2019-04-22T08:28:40.976Z,12.90
2019-04-22T08:29:53.495Z,13.00
2019-04-22T08:30:55.307Z,13.20
2019-04-22T08:31:59.111Z,13.50
2019-04-22T08:33:09.675Z,13.70
2019-04-22T08:34:16.657Z,13.80
2019-04-22T08:35:29.869Z,13.90
2019-04-22T08:36:32.276Z,13.90
2019-04-22T08:38:52.871Z,14.30
2019-04-22T08:40:01.927Z,14.30
2019-04-22T08:42:43.596Z,14.40
2019-04-22T08:43:47.453Z,14.50
2019-04-22T08:45:59.968Z,14.80
2019-04-22T08:47:14.167Z,14.50
2019-04-22T08:48:19.759Z,14.30
2019-04-22T08:49:28.722Z,14.40
2019-04-22T08:50:33.507Z,14.70
2019-04-22T08:51:35.938Z,14.80
2019-04-22T08:52:49.435Z,14.90
2019-04-22T08:53:59.822Z,15.00
2019-04-22T08:56:23.517Z,15.00
2019-04-22T08:57:25.980Z,15.20
2019-04-22T08:58:28.105Z,15.10
2019-04-22T08:59:37.172Z,15.30
2019-04-22T09:00:52.886Z,15.40
2019-04-22T09:01:50.668Z,15.50
2019-04-22T09:03:04.722Z,15.80
2019-04-22T09:04:10.018Z,15.80
2019-04-22T09:05:22.498Z,16.40
2019-04-22T09:07:32.046Z,16.90
2019-04-22T09:08:45.651Z,18.50
2019-04-22T09:09:53.978Z,17.50
2019-04-22T09:10:58.624Z,17.10
2019-04-22T09:12:10.365Z,16.50
2019-04-22T09:13:14.479Z,16.20
2019-04-22T09:14:37.930Z,17.50
2019-04-22T09:15:41.985Z,19.40
2019-04-22T09:17:17.440Z,18.50
2019-04-22T09:18:16.054Z,19.40
2019-04-22T09:19:22.517Z,20.80
2019-04-22T09:21:47.015Z,20.40
2019-04-22T09:23:09.707Z,19.90
2019-04-22T09:25:26.995Z,18.40
2019-04-22T09:26:36.007Z,18.50
2019-04-22T09:27:42.931Z,18.50
2019-04-22T09:28:52.348Z,17.80
2019-04-22T09:29:59.612Z,17.40
2019-04-22T09:31:06.840Z,17.30
2019-04-22T09:32:23.320Z,17.20
2019-04-22T09:33:27.438Z,17.00
2019-04-22T09:34:43.412Z,16.70
2019-04-22T09:35:52.069Z,16.80
2019-04-22T09:37:06.263Z,16.70
2019-04-22T09:38:19.894Z,16.70
2019-04-22T09:39:15.658Z,16.50
2019-04-22T09:40:37.534Z,16.50
2019-04-22T09:41:33.446Z,16.40
2019-04-22T09:42:39.662Z,16.40
2019-04-22T09:43:52.098Z,16.30
2019-04-22T09:45:04.006Z,16.30
2019-04-22T09:46:14.872Z,16.30
2019-04-22T09:47:40.050Z,16.10
2019-04-22T09:48:40.657Z,16.00
2019-04-22T09:50:55.652Z,16.20
2019-04-22T09:52:08.428Z,16.30
2019-04-22T09:53:08.485Z,16.40
2019-04-22T09:54:26.544Z,16.50
2019-04-22T09:55:26.338Z,16.50
2019-04-22T09:56:42.186Z,16.50
2019-04-22T09:57:42.468Z,16.70
2019-04-22T09:58:53.576Z,16.80
2019-04-22T10:00:03.333Z,16.80
2019-04-22T10:02:30.558Z,16.80
2019-04-22T10:03:29.009Z,16.80
2019-04-22T10:04:44.329Z,16.70
2019-04-22T10:05:52.188Z,16.50
2019-04-22T10:06:57.429Z,16.50
2019-04-22T10:08:08.976Z,16.50
2019-04-22T10:09:35.602Z,16.50
2019-04-22T10:10:35.093Z,16.30
2019-04-22T10:11:35.030Z,16.50
2019-04-22T10:12:40.697Z,16.70
2019-04-22T10:13:47.609Z,17.00
2019-04-22T10:14:49.717Z,17.20
2019-04-22T10:16:08.510Z,17.30
2019-04-22T10:17:06.575Z,17.30
2019-04-22T10:18:20.222Z,17.20
2019-04-22T10:19:23.488Z,17.10
2019-04-22T10:20:31.690Z,17.10
2019-04-22T10:21:44.684Z,17.20
2019-04-22T10:23:05.436Z,17.10
2019-04-22T10:23:57.982Z,17.10
2019-04-22T10:25:03.332Z,17.40
2019-04-22T10:26:12.978Z,17.40
2019-04-22T10:27:21.148Z,17.30
2019-04-22T10:28:34.731Z,17.20
2019-04-22T10:29:43.521Z,17.10
2019-04-22T10:30:47.317Z,17.70
2019-04-22T10:31:55.859Z,18.10
2019-04-22T10:33:01.428Z,18.20
2019-04-22T10:33:59.956Z,18.00
2019-04-22T10:35:15.493Z,18.10
2019-04-22T10:36:18.138Z,18.90
2019-04-22T10:37:25.767Z,19.20
2019-04-22T10:38:32.502Z,19.00
2019-04-22T10:39:52.518Z,18.60
2019-04-22T10:40:50.317Z,18.20
2019-04-22T10:41:56.887Z,18.00
2019-04-22T10:43:03.433Z,17.70
2019-04-22T10:44:10.926Z,17.50
2019-04-22T10:45:18.500Z,17.20
2019-04-22T10:46:26.265Z,17.00
2019-04-22T10:47:34.141Z,17.00
2019-04-22T10:48:40.482Z,17.10
2019-04-22T10:49:48.682Z,16.90
2019-04-22T10:50:55.061Z,17.10
2019-04-22T10:52:02.681Z,17.50
2019-04-22T10:53:09.399Z,18.80
2019-04-22T10:54:15.907Z,20.50
2019-04-22T10:55:23.444Z,20.90
2019-04-22T10:56:30.661Z,20.10
2019-04-22T10:57:39.044Z,19.40
2019-04-22T10:58:46.546Z,18.90
2019-04-22T10:59:54.426Z,18.50
2019-04-22T11:01:00.876Z,18.30
2019-04-22T11:02:07.539Z,19.50
2019-04-22T11:03:16.182Z,21.40
2019-04-22T11:04:22.743Z,22.60
2019-04-22T11:05:30.225Z,21.60
2019-04-22T11:06:42.579Z,21.20
2019-04-22T11:07:51.863Z,21.90
2019-04-22T11:08:58.303Z,21.10
2019-04-22T11:10:20.401Z,20.30
2019-04-22T11:11:21.511Z,19.30
2019-04-22T11:12:22.533Z,18.70
2019-04-22T11:13:26.326Z,18.50
2019-04-22T11:14:32.828Z,18.20
2019-04-22T11:15:40.505Z,17.90
2019-04-22T11:16:47.677Z,17.70
2019-04-22T11:17:55.626Z,17.60
2019-04-22T11:19:03.482Z,18.00
2019-04-22T11:20:11.335Z,18.60
2019-04-22T11:21:18.011Z,21.10
2019-04-22T11:22:28.515Z,23.40
2019-04-22T11:23:32.525Z,25.00
2019-04-22T11:24:41.152Z,26.00
2019-04-22T11:25:48.042Z,26.30
2019-04-22T11:26:54.913Z,27.40
2019-04-22T11:28:01.954Z,28.30
2019-04-22T11:29:09.758Z,26.70
2019-04-22T11:30:20.969Z,24.70
2019-04-22T11:31:26.464Z,22.80
2019-04-22T11:32:33.294Z,21.70
2019-04-22T11:33:40.662Z,20.80
2019-04-22T11:34:47.213Z,20.20
2019-04-22T11:35:55.497Z,19.80
2019-04-22T11:37:03.334Z,19.50
2019-04-22T11:38:10.785Z,19.30
2019-04-22T11:39:17.533Z,19.00
2019-04-22T11:40:32.098Z,18.90
2019-04-22T11:41:32.199Z,20.60
2019-04-22T11:42:38.662Z,22.90
2019-04-22T11:43:47.413Z,24.60
2019-04-22T11:44:57.113Z,25.80
2019-04-22T11:46:07.314Z,27.00
2019-04-22T11:47:15.147Z,26.80
2019-04-22T11:48:23.625Z,25.00
2019-04-22T11:49:34.176Z,24.10
2019-04-22T11:50:43.997Z,24.40
2019-04-22T11:51:52.166Z,25.90
2019-04-22T11:53:02.627Z,27.10
2019-04-22T11:54:14.608Z,28.10
2019-04-22T11:55:24.631Z,26.60
2019-04-22T11:56:32.677Z,25.80
2019-04-22T11:57:43.062Z,26.90
2019-04-22T11:58:57.644Z,27.00
2019-04-22T12:00:06.983Z,27.80
2019-04-22T12:01:19.224Z,28.40
2019-04-22T12:02:33.086Z,28.00
2019-04-22T12:03:44.122Z,26.80
2019-04-22T12:04:53.917Z,26.90
2019-04-22T12:06:04.300Z,28.10
2019-04-22T12:07:12.874Z,29.30
2019-04-22T12:08:25.220Z,29.90
2019-04-22T12:09:33.389Z,29.40
2019-04-22T12:10:46.827Z,26.80
2019-04-22T12:11:49.513Z,26.10
2019-04-22T12:12:55.949Z,24.50
2019-04-22T12:14:02.471Z,24.00
2019-04-22T12:15:10.584Z,26.00
2019-04-22T12:16:21.633Z,26.90
2019-04-22T12:17:33.641Z,26.80
2019-04-22T12:18:42.978Z,26.00
2019-04-22T12:19:52.628Z,24.50
2019-04-22T12:20:59.208Z,23.50
2019-04-22T12:22:07.161Z,22.40
2019-04-22T12:23:14.793Z,24.00
2019-04-22T12:24:21.477Z,26.00
2019-04-22T12:25:35.101Z,27.10
2019-04-22T12:26:36.130Z,28.40
2019-04-22T12:27:43.199Z,28.90
2019-04-22T12:28:50.987Z,29.20
2019-04-22T12:29:58.783Z,29.70
2019-04-22T12:31:05.779Z,30.10
2019-04-22T12:32:13.302Z,31.30
2019-04-22T12:33:21.235Z,30.10
2019-04-22T12:34:29.144Z,27.90
2019-04-22T12:35:36.959Z,27.20
2019-04-22T12:36:44.835Z,27.10
2019-04-22T12:37:57.376Z,26.00
2019-04-22T12:39:03.150Z,25.00
2019-04-22T12:40:25.921Z,23.50
2019-04-22T12:41:23.601Z,22.80
2019-04-22T12:42:33.234Z,24.40
2019-04-22T12:43:42.798Z,23.80
2019-04-22T12:44:52.236Z,23.10
2019-04-22T12:46:00.687Z,22.40
2019-04-22T12:47:17.862Z,22.00
2019-04-22T12:48:27.775Z,23.50
2019-04-22T12:49:38.333Z,26.20
2019-04-22T12:50:45.650Z,28.20
2019-04-22T12:51:51.400Z,28.80
2019-04-22T12:53:13.794Z,28.90
2019-04-22T12:54:28.957Z,29.10
2019-04-22T12:55:43.906Z,29.40
2019-04-22T12:56:57.866Z,29.60
2019-04-22T12:58:07.603Z,30.20
2019-04-22T12:59:17.204Z,29.10
2019-04-22T13:00:27.298Z,27.40
2019-04-22T13:01:35.112Z,27.80
2019-04-22T13:02:43.107Z,26.00
2019-04-22T13:03:52.145Z,24.50
2019-04-22T13:05:01.480Z,23.30
2019-04-22T13:06:10.007Z,22.60
2019-04-22T13:07:17.697Z,22.40
2019-04-22T13:08:25.807Z,22.00
2019-04-22T13:09:33.630Z,22.10
2019-04-22T13:10:52.624Z,22.10
2019-04-22T13:11:51.020Z,21.80
2019-04-22T13:13:00.756Z,21.70
2019-04-22T13:14:10.561Z,21.70
2019-04-22T13:15:20.540Z,21.40
2019-04-22T13:16:29.321Z,21.60
2019-04-22T13:17:37.963Z,21.80
2019-04-22T13:18:53.387Z,21.70
2019-04-22T13:19:55.830Z,21.70
2019-04-22T13:21:10.832Z,21.60
2019-04-22T13:22:23.072Z,21.70
2019-04-22T13:23:31.817Z,21.70
2019-04-22T13:24:42.047Z,21.40
2019-04-22T13:25:49.092Z,21.40
2019-04-22T13:27:06.560Z,21.40
2019-04-22T13:28:23.347Z,21.30
2019-04-22T13:29:48.760Z,21.10
2019-04-22T13:31:05.876Z,20.90
2019-04-22T13:32:31.337Z,21.20
2019-04-22T13:33:53.615Z,21.40
2019-04-22T13:35:12.726Z,21.20
2019-04-22T13:36:31.714Z,20.90
2019-04-22T13:37:53.062Z,20.70
2019-04-22T13:39:11.538Z,20.50
2019-04-22T13:40:30.914Z,20.60
2019-04-22T13:41:52.415Z,20.90
2019-04-22T13:43:07.221Z,20.90
2019-04-22T13:44:24.662Z,20.80
2019-04-22T13:45:40.768Z,20.50
2019-04-22T13:47:14.770Z,20.30
2019-04-22T13:48:40.058Z,20.30
2019-04-22T13:50:17.664Z,20.30
2019-04-22T13:51:30.272Z,20.10
2019-04-22T13:52:56.275Z,19.80
2019-04-22T13:54:42.489Z,19.60
2019-04-22T13:55:36.281Z,19.60
2019-04-22T13:56:37.090Z,19.50
2019-04-22T13:57:47.047Z,19.40
2019-04-22T13:59:03.388Z,19.40
2019-04-22T14:00:22.430Z,19.50
2019-04-22T14:01:58.768Z,19.60
2019-04-22T14:03:54.432Z,19.30
2019-04-22T14:05:16.882Z,19.50
2019-04-22T14:06:36.270Z,19.00
2019-04-22T14:08:04.287Z,18.80
2019-04-22T14:09:24.418Z,18.80
2019-04-22T14:10:44.994Z,19.00
2019-04-22T14:12:08.174Z,19.30
2019-04-22T14:13:25.941Z,19.30
2019-04-22T14:14:45.831Z,19.10
2019-04-22T14:16:06.813Z,19.40
2019-04-22T14:17:22.876Z,20.10
2019-04-22T14:18:41.083Z,20.70
2019-04-22T14:19:55.065Z,20.80
2019-04-22T14:21:14.922Z,20.80
2019-04-22T14:22:28.654Z,20.70
2019-04-22T14:23:38.547Z,20.70
2019-04-22T14:24:47.162Z,20.90
2019-04-22T14:25:54.758Z,21.40
2019-04-22T14:27:15.149Z,21.90
2019-04-22T14:28:15.049Z,22.10
2019-04-22T14:29:19.724Z,22.10
2019-04-22T14:30:26.721Z,22.10
2019-04-22T14:31:33.613Z,21.60
2019-04-22T14:32:41.807Z,21.40
2019-04-22T14:33:53.638Z,20.90
2019-04-22T14:34:57.351Z,20.90
2019-04-22T14:36:04.902Z,20.70
2019-04-22T14:37:11.998Z,20.60
2019-04-22T14:38:19.465Z,20.50
2019-04-22T14:39:26.187Z,20.10
2019-04-22T14:40:34.706Z,19.80
2019-04-22T14:41:57.433Z,19.80
2019-04-22T14:43:05.915Z,19.60
2019-04-22T14:44:56.407Z,20.00
2019-04-22T14:45:35.851Z,20.10
2019-04-22T14:46:38.900Z,20.20
2019-04-22T14:47:47.353Z,20.10
2019-04-22T14:48:49.860Z,20.20
2019-04-22T14:50:01.039Z,20.10
2019-04-22T14:51:00.659Z,19.90
2019-04-22T14:52:15.260Z,19.70
2019-04-22T14:53:20.743Z,19.50
2019-04-22T14:54:22.461Z,19.40
2019-04-22T14:55:23.833Z,19.30
2019-04-22T14:56:26.543Z,19.20
2019-04-22T14:57:34.283Z,19.00
2019-04-22T14:58:40.805Z,19.00
2019-04-22T14:59:50.134Z,19.00
2019-04-22T15:00:56.966Z,19.20
2019-04-22T15:02:03.561Z,19.00
2019-04-22T15:03:10.274Z,18.90
2019-04-22T15:04:17.207Z,18.90
2019-04-22T15:05:23.918Z,18.80
2019-04-22T15:06:31.516Z,18.80
2019-04-22T15:07:39.435Z,18.80
2019-04-22T15:08:46.929Z,18.80
2019-04-22T15:09:53.001Z,18.70
2019-04-22T15:11:00.244Z,18.70
2019-04-22T15:12:16.510Z,18.80
2019-04-22T15:13:15.587Z,18.80
2019-04-22T15:14:23.267Z,18.70
2019-04-22T15:15:54.939Z,18.60
2019-04-22T15:17:22.866Z,18.70
2019-04-22T15:18:39.822Z,18.70
2019-04-22T15:19:53.866Z,18.60
2019-04-22T15:21:07.031Z,18.70
2019-04-22T15:22:14.538Z,18.60
2019-04-22T15:23:22.159Z,18.50
2019-04-22T15:24:29.481Z,18.50
2019-04-22T15:25:36.747Z,18.40
2019-04-22T15:26:44.491Z,18.40
2019-04-22T15:27:53.298Z,18.30
2019-04-22T15:28:59.935Z,18.30
2019-04-22T15:30:09.586Z,18.20
2019-04-22T15:31:17.494Z,18.20
2019-04-22T15:32:25.285Z,18.20
2019-04-22T15:33:33.003Z,18.10
2019-04-22T15:34:39.562Z,18.10
2019-04-22T15:35:47.201Z,18.00
2019-04-22T15:36:56.000Z,17.90
2019-04-22T15:38:04.502Z,17.90
2019-04-22T15:39:11.280Z,17.90
2019-04-22T15:40:20.554Z,17.80
2019-04-22T15:41:28.439Z,17.80
2019-04-22T15:42:40.192Z,17.80
2019-04-22T15:43:45.747Z,17.70
2019-04-22T15:44:53.764Z,17.70
2019-04-22T15:46:03.348Z,17.70
2019-04-22T15:47:09.126Z,17.70
2019-04-22T15:48:16.759Z,17.60
2019-04-22T15:49:24.345Z,17.60
2019-04-22T15:50:30.979Z,17.60
2019-04-22T15:51:38.635Z,17.60
2019-04-22T15:52:50.038Z,17.50
2019-04-22T15:53:53.951Z,17.50
2019-04-22T15:55:00.767Z,17.60
2019-04-22T15:56:08.562Z,17.60
2019-04-22T15:57:15.008Z,17.60
2019-04-22T15:58:21.818Z,17.50
2019-04-22T15:59:44.550Z,17.40
2019-04-22T16:00:49.329Z,17.40
2019-04-22T16:01:44.855Z,17.30
2019-04-22T16:02:52.044Z,17.30
2019-04-22T16:04:00.655Z,17.40
2019-04-22T16:05:08.765Z,17.40
2019-04-22T16:06:15.769Z,17.40
2019-04-22T16:07:25.268Z,17.30
2019-04-22T16:08:33.550Z,17.30
2019-04-22T16:09:39.455Z,17.30
2019-04-22T16:10:46.222Z,17.20
2019-04-22T16:11:54.024Z,17.20
2019-04-22T16:13:07.307Z,17.10
2019-04-22T16:14:08.736Z,17.10
2019-04-22T16:15:16.193Z,17.00
2019-04-22T16:16:22.907Z,17.00
2019-04-22T16:17:30.604Z,16.90
2019-04-22T16:18:38.067Z,16.80
2019-04-22T16:19:45.131Z,16.80
2019-04-22T16:20:52.520Z,16.90
2019-04-22T16:22:03.895Z,16.90
2019-04-22T16:23:18.778Z,16.90
2019-04-22T16:24:48.063Z,16.80
2019-04-22T16:26:13.569Z,16.70
2019-04-22T16:27:24.826Z,16.60
2019-04-22T16:28:31.342Z,16.60
2019-04-22T16:29:38.958Z,16.50
2019-04-22T16:30:45.650Z,16.40
2019-04-22T16:31:53.362Z,16.30
2019-04-22T16:33:03.453Z,16.40
2019-04-22T16:34:11.268Z,16.40
2019-04-22T16:35:18.747Z,16.40
2019-04-22T16:36:25.170Z,16.30
2019-04-22T16:37:32.778Z,16.30
2019-04-22T16:38:40.803Z,16.20
2019-04-22T16:39:48.978Z,16.10
2019-04-22T16:40:55.120Z,16.10
2019-04-22T16:42:02.630Z,16.10
2019-04-22T16:43:10.093Z,16.00
2019-04-22T16:44:18.480Z,16.00
2019-04-22T16:45:25.373Z,16.00
2019-04-22T16:46:31.917Z,16.00
2019-04-22T16:47:39.555Z,15.90
2019-04-22T16:48:47.661Z,16.00
2019-04-22T16:49:55.205Z,16.00
2019-04-22T16:51:02.317Z,15.90
2019-04-22T16:52:10.140Z,15.80
2019-04-22T16:53:16.926Z,15.80
2019-04-22T16:54:24.419Z,15.80
2019-04-22T16:55:30.788Z,15.80
2019-04-22T16:56:37.301Z,15.70
2019-04-22T16:57:44.077Z,15.70
2019-04-22T16:58:50.853Z,15.70
2019-04-22T16:59:58.402Z,15.60
2019-04-22T17:01:07.642Z,15.60
2019-04-22T17:02:46.160Z,15.50
2019-04-22T17:04:06.968Z,15.50
2019-04-22T17:05:31.511Z,15.50
2019-04-22T17:06:41.456Z,15.50
2019-04-22T17:07:50.020Z,15.40
2019-04-22T17:08:57.127Z,15.40
2019-04-22T17:10:04.035Z,15.40
2019-04-22T17:11:11.643Z,15.40
2019-04-22T17:12:19.460Z,15.30
2019-04-22T17:13:30.251Z,15.40
2019-04-22T17:14:41.297Z,15.30
2019-04-22T17:15:42.004Z,15.30
2019-04-22T17:16:48.561Z,15.30
2019-04-22T17:17:54.913Z,15.30
2019-04-22T17:19:02.557Z,15.30
2019-04-22T17:20:09.535Z,15.20
2019-04-22T17:21:17.401Z,15.20
2019-04-22T17:22:24.168Z,15.20
2019-04-22T17:23:31.656Z,15.20
2019-04-22T17:24:39.500Z,15.30
2019-04-22T17:25:46.099Z,15.20
2019-04-22T17:26:52.661Z,15.20
2019-04-22T17:27:59.437Z,15.10
2019-04-22T17:29:08.315Z,15.10
2019-04-22T17:30:16.679Z,15.10
2019-04-22T17:31:23.070Z,15.10
2019-04-22T17:32:29.625Z,15.10
2019-04-22T17:33:37.238Z,15.00
2019-04-22T17:34:43.697Z,15.00
2019-04-22T17:35:50.320Z,15.00
2019-04-22T17:36:57.309Z,15.00
2019-04-22T17:38:15.337Z,15.00
2019-04-22T17:39:26.985Z,14.90
2019-04-22T17:40:38.740Z,15.00
2019-04-22T17:41:53.978Z,14.90
2019-04-22T17:42:59.182Z,14.90
2019-04-22T17:44:25.035Z,14.90
2019-04-22T17:45:41.588Z,14.80
2019-04-22T17:46:46.111Z,14.80
2019-04-22T17:48:25.810Z,14.70
2019-04-22T17:49:37.184Z,14.70
2019-04-22T17:50:50.924Z,14.70
2019-04-22T17:52:23.170Z,14.70
2019-04-22T17:53:31.528Z,14.70
2019-04-22T17:54:33.986Z,14.70
2019-04-22T17:55:54.143Z,14.60
2019-04-22T17:56:54.293Z,14.60
2019-04-22T17:58:09.605Z,14.60
2019-04-22T17:59:10.424Z,14.60
2019-04-22T18:00:23.585Z,14.50
2019-04-22T18:01:35.740Z,14.50
2019-04-22T18:02:42.450Z,14.40
2019-04-22T18:03:40.778Z,14.40
2019-04-22T18:04:48.003Z,14.30
2019-04-22T18:05:57.435Z,14.30
2019-04-22T18:07:24.559Z,14.30
2019-04-22T18:08:27.119Z,14.40
2019-04-22T18:09:53.679Z,14.30
2019-04-22T18:10:44.048Z,14.20
2019-04-22T18:11:56.072Z,14.20
2019-04-22T18:13:14.007Z,14.30
2019-04-22T18:14:30.304Z,14.30
2019-04-22T18:15:23.812Z,14.20
2019-04-22T18:16:40.222Z,14.20
2019-04-22T18:17:51.649Z,14.20
2019-04-22T18:18:52.843Z,14.10
2019-04-22T18:19:54.720Z,14.10
2019-04-22T18:21:06.287Z,14.10
2019-04-22T18:22:09.389Z,14.10
2019-04-22T18:23:10.229Z,14.10
2019-04-22T18:24:18.229Z,14.10
2019-04-22T18:25:34.068Z,14.20
2019-04-22T18:26:48.032Z,14.20
2019-04-22T18:28:00.577Z,14.10
2019-04-22T18:29:00.903Z,14.10
2019-04-22T18:30:12.720Z,14.00
2019-04-22T18:31:17.433Z,14.00
2019-04-22T18:32:20.402Z,13.90
2019-04-22T18:33:32.981Z,13.90
2019-04-22T18:34:42.749Z,13.90
2019-04-22T18:35:54.069Z,13.90
2019-04-22T18:36:59.120Z,13.90
2019-04-22T18:38:19.788Z,13.90
2019-04-22T18:39:22.482Z,13.90
2019-04-22T18:40:30.942Z,13.90
2019-04-22T18:41:39.535Z,13.90
2019-04-22T18:42:53.555Z,13.80
2019-04-22T18:43:58.727Z,13.80
2019-04-22T18:45:24.660Z,13.80
2019-04-22T18:46:15.678Z,13.80
2019-04-22T18:47:21.629Z,13.80
2019-04-22T18:48:34.992Z,13.80
2019-04-22T18:49:42.813Z,13.80
2019-04-22T18:51:04.517Z,13.80
2019-04-22T18:52:37.954Z,13.70
2019-04-22T18:54:05.039Z,13.80
2019-04-22T18:55:26.854Z,13.80
2019-04-22T18:56:48.042Z,13.70
2019-04-22T18:57:59.070Z,13.70
2019-04-22T18:59:05.105Z,13.70
2019-04-22T19:00:04.267Z,13.60
2019-04-22T19:01:12.442Z,13.60
2019-04-22T19:02:24.736Z,13.60
2019-04-22T19:03:32.146Z,13.50
2019-04-22T19:04:47.282Z,13.50
2019-04-22T19:06:20.141Z,13.50
2019-04-22T19:07:16.659Z,13.50
2019-04-22T19:08:36.716Z,13.50
2019-04-22T19:09:45.365Z,13.40
2019-04-22T19:12:08.811Z,13.40
2019-04-22T19:13:39.224Z,13.40
2019-04-22T19:14:35.322Z,13.30
2019-04-22T19:15:25.214Z,13.40
2019-04-22T19:16:48.141Z,13.30
2019-04-22T19:17:51.069Z,13.30
2019-04-22T19:18:56.450Z,13.30
2019-04-22T19:21:19.727Z,13.30
2019-04-22T19:22:16.262Z,13.30
2019-04-22T19:23:28.692Z,13.20
2019-04-22T19:24:31.907Z,13.30
2019-04-22T19:25:38.379Z,13.30
2019-04-22T19:26:55.939Z,13.20
2019-04-22T19:28:01.379Z,13.10
2019-04-22T19:29:05.651Z,13.10
2019-04-22T19:30:16.378Z,13.10
2019-04-22T19:31:43.817Z,13.10
2019-04-22T19:32:41.564Z,13.10
2019-04-22T19:33:52.246Z,13.00
2019-04-22T19:34:48.208Z,13.00
2019-04-22T19:36:04.980Z,13.00
2019-04-22T19:37:08.324Z,13.00
2019-04-22T19:38:12.255Z,13.00
2019-04-22T19:39:26.522Z,13.00
2019-04-22T19:40:55.422Z,13.00
2019-04-22T19:41:59.189Z,12.90
2019-04-22T19:43:04.006Z,12.90
2019-04-22T19:44:08.725Z,12.90
2019-04-22T19:45:17.625Z,12.90
2019-04-22T19:46:24.992Z,12.80
2019-04-22T19:47:38.192Z,12.80
2019-04-22T19:48:45.029Z,12.80
2019-04-22T19:49:57.951Z,12.70
2019-04-22T19:51:12.747Z,12.70
2019-04-22T19:52:10.901Z,12.60
2019-04-22T19:53:19.572Z,12.60
2019-04-22T19:54:23.265Z,12.60
2019-04-22T19:55:39.145Z,12.60
2019-04-22T19:56:36.461Z,12.60
2019-04-22T19:57:52.496Z,12.60
2019-04-22T19:58:54.804Z,12.60
2019-04-22T20:00:10.949Z,12.60
2019-04-22T20:01:41.601Z,12.60
2019-04-22T20:03:03.629Z,12.60
2019-04-22T20:04:25.074Z,12.50
2019-04-22T20:05:50.995Z,12.50
2019-04-22T20:06:56.483Z,12.40
2019-04-22T20:08:11.083Z,12.40
2019-04-22T20:09:22.169Z,12.40
2019-04-22T20:10:25.236Z,12.40
2019-04-22T20:11:35.276Z,12.40
2019-04-22T20:12:39.755Z,12.40
2019-04-22T20:13:47.672Z,12.40
2019-04-22T20:14:57.294Z,12.30
2019-04-22T20:15:58.325Z,12.40
2019-04-22T20:17:23.296Z,12.30
2019-04-22T20:19:39.573Z,12.30
2019-04-22T20:20:49.300Z,12.30
2019-04-22T20:21:51.528Z,12.20
2019-04-22T20:22:56.299Z,12.20
2019-04-22T20:23:58.583Z,12.30
2019-04-22T20:25:05.392Z,12.30
2019-04-22T20:26:19.052Z,12.20
2019-04-22T20:27:38.800Z,12.20
2019-04-22T20:28:44.980Z,12.20
2019-04-22T20:29:54.757Z,12.20
2019-04-22T20:30:55.813Z,12.20
2019-04-22T20:32:05.394Z,12.20
2019-04-22T20:33:08.396Z,12.10
2019-04-22T20:34:26.745Z,12.10
2019-04-22T20:35:41.986Z,12.10
2019-04-22T20:37:54.174Z,12.00
2019-04-22T20:38:58.173Z,12.10
2019-04-22T20:40:05.428Z,12.00
2019-04-22T20:41:08.890Z,12.00
2019-04-22T20:42:46.688Z,12.00
2019-04-22T20:43:36.904Z,11.90
2019-04-22T20:44:39.765Z,11.90
2019-04-22T20:45:46.190Z,11.90
2019-04-22T20:46:55.758Z,11.90
2019-04-22T20:47:53.853Z,11.90
2019-04-22T20:49:11.699Z,11.90
2019-04-22T20:50:18.546Z,11.90
2019-04-22T20:51:35.373Z,11.90
2019-04-22T20:52:40.790Z,11.80
2019-04-22T20:53:46.040Z,11.80
2019-04-22T20:54:50.952Z,11.70
2019-04-22T20:56:00.629Z,11.80
2019-04-22T20:57:02.265Z,11.80
2019-04-22T20:58:15.397Z,11.80
2019-04-22T20:59:24.068Z,11.70
2019-04-22T21:00:24.973Z,11.70
2019-04-22T21:01:38.213Z,11.70
2019-04-22T21:02:39.878Z,11.60
2019-04-22T21:03:44.021Z,11.60
2019-04-22T21:04:54.603Z,11.70
2019-04-22T21:06:10.225Z,11.60
2019-04-22T21:07:20.090Z,11.60
2019-04-22T21:08:33.408Z,11.60
2019-04-22T21:09:37.909Z,11.60
2019-04-22T21:10:39.834Z,11.60
2019-04-22T21:11:51.936Z,11.50
2019-04-22T21:13:01.249Z,11.50
2019-04-22T21:14:06.422Z,11.50
2019-04-22T21:15:26.471Z,11.50
2019-04-22T21:16:34.644Z,11.50
2019-04-22T21:17:41.728Z,11.50
2019-04-22T21:18:43.836Z,11.50
2019-04-22T21:20:05.316Z,11.40
2019-04-22T21:21:03.946Z,11.50
2019-04-22T21:22:10.120Z,11.50
2019-04-22T21:23:16.247Z,11.40
2019-04-22T21:24:25.134Z,11.40
2019-04-22T21:25:26.394Z,11.40
2019-04-22T21:26:39.969Z,11.40
2019-04-22T21:27:51.024Z,11.30
2019-04-22T21:28:58.404Z,11.30
2019-04-22T21:30:00.053Z,11.20
2019-04-22T21:31:19.145Z,11.30
2019-04-22T21:32:24.061Z,11.30
2019-04-22T21:33:23.554Z,11.30
2019-04-22T21:34:47.582Z,11.30
2019-04-22T21:35:59.573Z,11.30
2019-04-22T21:37:04.310Z,11.30
2019-04-22T21:38:08.456Z,11.30
2019-04-22T21:39:08.170Z,11.20
2019-04-22T21:40:22.764Z,11.20
2019-04-22T21:41:25.035Z,11.20
2019-04-22T21:42:45.459Z,11.10
2019-04-22T21:43:51.461Z,11.20
2019-04-22T21:44:49.801Z,11.10
2019-04-22T21:46:04.137Z,11.10
2019-04-22T21:47:14.911Z,11.10
2019-04-22T21:48:27.987Z,11.10
2019-04-22T21:49:29.801Z,11.10
2019-04-22T21:50:58.133Z,11.10
2019-04-22T21:51:43.489Z,11.00
2019-04-22T21:52:59.223Z,11.00
2019-04-22T21:54:06.783Z,11.00
2019-04-22T21:55:14.480Z,11.00
2019-04-22T21:56:31.760Z,10.90
2019-04-22T21:57:39.794Z,10.90
2019-04-22T21:59:07.393Z,10.90
2019-04-22T22:00:25.007Z,10.90
2019-04-22T22:01:35.483Z,10.80
2019-04-22T22:02:39.126Z,10.80
2019-04-22T22:03:54.911Z,10.80
2019-04-22T22:04:54.262Z,10.80
2019-04-22T22:06:02.949Z,10.80
2019-04-22T22:07:05.276Z,10.80
2019-04-22T22:08:35.176Z,10.80
2019-04-22T22:09:37.934Z,10.70
2019-04-22T22:10:45.323Z,10.70
2019-04-22T22:11:49.126Z,10.70
2019-04-22T22:13:00.647Z,10.70
2019-04-22T22:14:07.783Z,10.70
2019-04-22T22:15:13.264Z,10.70
2019-04-22T22:16:18.893Z,10.70
2019-04-22T22:17:31.456Z,10.70
2019-04-22T22:18:30.052Z,10.70
2019-04-22T22:19:44.445Z,10.70
2019-04-22T22:21:12.654Z,10.70
2019-04-22T22:22:13.747Z,10.70
2019-04-22T22:23:21.683Z,10.70
2019-04-22T22:24:25.567Z,10.70
2019-04-22T22:25:26.538Z,10.60
2019-04-22T22:26:40.680Z,10.60
2019-04-22T22:27:41.099Z,10.60
2019-04-22T22:29:08.832Z,10.60
2019-04-22T22:30:07.869Z,10.70
2019-04-22T22:31:14.820Z,10.60
2019-04-22T22:32:22.022Z,10.60
2019-04-22T22:33:26.312Z,10.50
2019-04-22T22:34:28.116Z,10.60
2019-04-22T22:35:36.053Z,10.60
2019-04-22T22:36:40.356Z,10.50
2019-04-22T22:37:59.146Z,10.60
2019-04-22T22:38:58.596Z,10.50
2019-04-22T22:39:58.027Z,10.60
2019-04-22T22:40:58.180Z,10.50
2019-04-22T22:42:05.803Z,10.50
2019-04-22T22:43:24.921Z,10.40
2019-04-22T22:44:28.340Z,10.40
2019-04-22T22:45:37.011Z,10.30
2019-04-22T22:46:51.432Z,10.30
2019-04-22T22:48:09.559Z,10.30
2019-04-22T22:49:18.354Z,10.30
2019-04-22T22:50:23.316Z,10.30
2019-04-22T22:51:34.269Z,10.30
2019-04-22T22:52:50.348Z,10.30
2019-04-22T22:53:44.675Z,10.30
2019-04-22T22:54:53.713Z,10.20
2019-04-22T22:55:58.040Z,10.20
2019-04-22T22:57:17.463Z,10.20
2019-04-22T22:58:16.113Z,10.20
2019-04-22T22:59:27.590Z,10.10
2019-04-22T23:00:33.943Z,10.10
2019-04-22T23:01:45.384Z,10.10
2019-04-22T23:03:11.112Z,10.10
2019-04-22T23:04:04.018Z,10.10